sensor_id;sensor_type;location;lat;lon;timestamp;pressure;altitude;pressure_sealevel;temperature;humidity
24892;BME280;12954;50.688;10.908;2022-07-06T00:00:31;96145.53;;;16.50;41.42
24892;BME280;12954;50.688;10.908;2022-07-06T00:02:59;96148.75;;;16.52;41.50
24892;BME280;12954;50.688;10.908;2022-07-06T00:05:28;96155.94;;;16.48;41.72
24892;BME280;12954;50.688;10.908;2022-07-06T00:07:57;96152.69;;;16.46;41.89
24892;BME280;12954;50.688;10.908;2022-07-06T00:10:26;96150.56;;;16.43;42.03
24892;BME280;12954;50.688;10.908;2022-07-06T00:12:55;96097.38;;;16.05;41.95
24892;BME280;12954;50.688;10.908;2022-07-06T00:15:23;96154.94;;;16.31;42.05
24892;BME280;12954;50.688;10.908;2022-07-06T00:17:53;96135.31;;;16.15;42.15
24892;BME280;12954;50.688;10.908;2022-07-06T00:20:22;96151.66;;;16.15;42.31
24892;BME280;12954;50.688;10.908;2022-07-06T00:22:51;96153.06;;;16.12;42.43
24892;BME280;12954;50.688;10.908;2022-07-06T00:25:19;96151.22;;;16.08;42.58
24892;BME280;12954;50.688;10.908;2022-07-06T00:27:48;96151.63;;;16.01;42.68
24892;BME280;12954;50.688;10.908;2022-07-06T00:30:17;96151.81;;;15.91;42.74
24892;BME280;12954;50.688;10.908;2022-07-06T00:32:45;96152.72;;;15.87;43.02
24892;BME280;12954;50.688;10.908;2022-07-06T00:35:15;96153.38;;;15.79;43.15
24892;BME280;12954;50.688;10.908;2022-07-06T00:37:43;96145.31;;;15.74;43.29
24892;BME280;12954;50.688;10.908;2022-07-06T00:40:12;96152.78;;;15.68;43.25
24892;BME280;12954;50.688;10.908;2022-07-06T00:42:41;96111.13;;;15.35;43.42
24892;BME280;12954;50.688;10.908;2022-07-06T00:45:10;96153.75;;;15.58;43.36
24892;BME280;12954;50.688;10.908;2022-07-06T00:47:39;96149.00;;;15.50;43.21
24892;BME280;12954;50.688;10.908;2022-07-06T00:50:09;96150.69;;;15.46;43.38
24892;BME280;12954;50.688;10.908;2022-07-06T00:52:50;96148.28;;;15.45;43.19
24892;BME280;12954;50.688;10.908;2022-07-06T00:55:22;96163.78;;;15.44;43.08
24892;BME280;12954;50.688;10.908;2022-07-06T00:57:51;96162.16;;;15.43;42.97
24892;BME280;12954;50.688;10.908;2022-07-06T01:00:21;96087.81;;;14.97;42.97
24892;BME280;12954;50.688;10.908;2022-07-06T01:02:51;96170.09;;;15.40;42.95
24892;BME280;12954;50.688;10.908;2022-07-06T01:05:21;96138.28;;;15.22;42.97
24892;BME280;12954;50.688;10.908;2022-07-06T01:07:52;96153.03;;;15.16;42.92
24892;BME280;12954;50.688;10.908;2022-07-06T01:10:22;96159.34;;;15.30;42.91
24892;BME280;12954;50.688;10.908;2022-07-06T01:12:51;96156.19;;;15.23;43.14
24892;BME280;12954;50.688;10.908;2022-07-06T01:15:22;96151.97;;;15.17;43.35
24892;BME280;12954;50.688;10.908;2022-07-06T01:17:51;96155.03;;;15.10;43.31
24892;BME280;12954;50.688;10.908;2022-07-06T01:20:22;96128.81;;;14.82;43.67
24892;BME280;12954;50.688;10.908;2022-07-06T01:22:52;96122.34;;;14.78;43.65
24892;BME280;12954;50.688;10.908;2022-07-06T01:25:21;96113.66;;;14.76;43.94
24892;BME280;12954;50.688;10.908;2022-07-06T01:27:50;96141.53;;;14.86;43.94
24892;BME280;12954;50.688;10.908;2022-07-06T01:30:19;96134.22;;;14.82;44.01
24892;BME280;12954;50.688;10.908;2022-07-06T01:32:48;96136.75;;;14.78;44.00
24892;BME280;12954;50.688;10.908;2022-07-06T01:35:18;96137.91;;;14.72;44.21
24892;BME280;12954;50.688;10.908;2022-07-06T01:37:49;96138.28;;;14.66;44.36
24892;BME280;12954;50.688;10.908;2022-07-06T01:40:18;96136.72;;;14.60;44.51
24892;BME280;12954;50.688;10.908;2022-07-06T01:42:46;96022.09;;;13.78;44.56
24892;BME280;12954;50.688;10.908;2022-07-06T01:45:15;96140.66;;;14.49;44.79
24892;BME280;12954;50.688;10.908;2022-07-06T01:47:43;96089.28;;;14.10;44.88
24892;BME280;12954;50.688;10.908;2022-07-06T01:50:12;96131.00;;;14.37;45.13
24892;BME280;12954;50.688;10.908;2022-07-06T01:52:40;96143.03;;;14.31;45.24
24892;BME280;12954;50.688;10.908;2022-07-06T01:55:10;96076.22;;;13.88;45.47
24892;BME280;12954;50.688;10.908;2022-07-06T01:57:39;96139.59;;;14.21;45.55
24892;BME280;12954;50.688;10.908;2022-07-06T02:00:08;96131.22;;;14.17;45.73
24892;BME280;12954;50.688;10.908;2022-07-06T02:02:37;96133.44;;;14.15;45.85
24892;BME280;12954;50.688;10.908;2022-07-06T02:05:06;96137.81;;;14.11;45.90
24892;BME280;12954;50.688;10.908;2022-07-06T02:07:35;96139.50;;;14.07;46.12
24892;BME280;12954;50.688;10.908;2022-07-06T02:10:04;96146.59;;;14.03;46.26
24892;BME280;12954;50.688;10.908;2022-07-06T02:12:34;96148.84;;;13.96;46.39
24892;BME280;12954;50.688;10.908;2022-07-06T02:15:03;96145.59;;;13.94;46.67
24892;BME280;12954;50.688;10.908;2022-07-06T02:17:32;96117.59;;;13.75;46.66
24892;BME280;12954;50.688;10.908;2022-07-06T02:20:01;96148.66;;;13.87;46.80
24892;BME280;12954;50.688;10.908;2022-07-06T02:22:29;96143.00;;;13.84;46.99
24892;BME280;12954;50.688;10.908;2022-07-06T02:24:58;96151.72;;;13.81;47.17
24892;BME280;12954;50.688;10.908;2022-07-06T02:27:26;96151.47;;;13.77;47.19
24892;BME280;12954;50.688;10.908;2022-07-06T02:29:56;96149.63;;;13.73;47.33
24892;BME280;12954;50.688;10.908;2022-07-06T02:32:25;96077.44;;;13.14;47.56
24892;BME280;12954;50.688;10.908;2022-07-06T02:34:54;96162.94;;;13.69;47.59
24892;BME280;12954;50.688;10.908;2022-07-06T02:37:22;96163.75;;;13.70;47.57
24892;BME280;12954;50.688;10.908;2022-07-06T02:39:51;96165.91;;;13.68;47.70
24892;BME280;12954;50.688;10.908;2022-07-06T02:42:19;96160.50;;;13.68;47.81
24892;BME280;12954;50.688;10.908;2022-07-06T02:44:48;96156.19;;;13.67;47.84
24892;BME280;12954;50.688;10.908;2022-07-06T02:47:19;96055.94;;;12.99;47.83
24892;BME280;12954;50.688;10.908;2022-07-06T02:49:47;96152.41;;;13.63;47.83
24892;BME280;12954;50.688;10.908;2022-07-06T02:52:16;96158.91;;;13.62;47.66
24892;BME280;12954;50.688;10.908;2022-07-06T02:54:44;96083.94;;;13.18;47.81
24892;BME280;12954;50.688;10.908;2022-07-06T02:57:15;96160.06;;;13.56;47.92
24892;BME280;12954;50.688;10.908;2022-07-06T02:59:44;96154.94;;;13.54;47.90
24892;BME280;12954;50.688;10.908;2022-07-06T03:02:13;96159.50;;;13.54;47.79
24892;BME280;12954;50.688;10.908;2022-07-06T03:04:43;96156.81;;;13.54;48.05
24892;BME280;12954;50.688;10.908;2022-07-06T03:07:12;96161.16;;;13.50;48.12
24892;BME280;12954;50.688;10.908;2022-07-06T03:09:40;96121.28;;;13.21;48.34
24892;BME280;12954;50.688;10.908;2022-07-06T03:12:09;96164.75;;;13.45;48.51
24892;BME280;12954;50.688;10.908;2022-07-06T03:14:38;96160.13;;;13.46;48.54
24892;BME280;12954;50.688;10.908;2022-07-06T03:17:07;96165.56;;;13.46;48.71
24892;BME280;12954;50.688;10.908;2022-07-06T03:19:36;96169.34;;;13.45;48.62
24892;BME280;12954;50.688;10.908;2022-07-06T03:22:06;96176.16;;;13.42;48.95
24892;BME280;12954;50.688;10.908;2022-07-06T03:24:35;96186.16;;;13.42;48.87
24892;BME280;12954;50.688;10.908;2022-07-06T03:27:03;96181.88;;;13.41;49.05
24892;BME280;12954;50.688;10.908;2022-07-06T03:29:32;96178.91;;;13.37;49.16
24892;BME280;12954;50.688;10.908;2022-07-06T03:32:01;96178.91;;;13.37;49.32
24892;BME280;12954;50.688;10.908;2022-07-06T03:34:29;96099.84;;;12.91;49.15
24892;BME280;12954;50.688;10.908;2022-07-06T03:36:58;96182.13;;;13.39;49.29
24892;BME280;12954;50.688;10.908;2022-07-06T03:39:28;96177.53;;;13.40;49.53
24892;BME280;12954;50.688;10.908;2022-07-06T03:41:57;96137.06;;;13.14;49.42
24892;BME280;12954;50.688;10.908;2022-07-06T03:44:26;96131.63;;;13.14;49.45
24892;BME280;12954;50.688;10.908;2022-07-06T03:46:55;96187.19;;;13.51;49.36
24892;BME280;12954;50.688;10.908;2022-07-06T03:49:23;96206.16;;;13.56;49.29
24892;BME280;12954;50.688;10.908;2022-07-06T03:51:54;96172.78;;;13.60;49.23
24892;BME280;12954;50.688;10.908;2022-07-06T03:54:22;96173.53;;;13.66;49.17
24892;BME280;12954;50.688;10.908;2022-07-06T03:56:52;96176.19;;;13.71;49.06
24892;BME280;12954;50.688;10.908;2022-07-06T03:59:21;96113.94;;;13.27;49.00
24892;BME280;12954;50.688;10.908;2022-07-06T04:01:50;96147.63;;;13.55;49.05
24892;BME280;12954;50.688;10.908;2022-07-06T04:04:20;96191.28;;;13.82;49.11
24892;BME280;12954;50.688;10.908;2022-07-06T04:06:48;96130.88;;;13.43;48.97
24892;BME280;12954;50.688;10.908;2022-07-06T04:09:17;96144.09;;;13.54;48.98
24892;BME280;12954;50.688;10.908;2022-07-06T04:11:46;96192.00;;;13.92;49.16
24892;BME280;12954;50.688;10.908;2022-07-06T04:14:16;96182.50;;;13.95;49.01
24892;BME280;12954;50.688;10.908;2022-07-06T04:16:44;96154.25;;;13.72;49.11
24892;BME280;12954;50.688;10.908;2022-07-06T04:19:13;96162.88;;;13.74;49.17
24892;BME280;12954;50.688;10.908;2022-07-06T04:21:42;96112.47;;;13.40;49.23
24892;BME280;12954;50.688;10.908;2022-07-06T04:24:10;96192.19;;;14.01;49.40
24892;BME280;12954;50.688;10.908;2022-07-06T04:26:39;96198.13;;;14.03;49.38
24892;BME280;12954;50.688;10.908;2022-07-06T04:29:07;96204.09;;;14.05;49.39
24892;BME280;12954;50.688;10.908;2022-07-06T04:31:37;96190.06;;;13.98;49.45
24892;BME280;12954;50.688;10.908;2022-07-06T04:34:05;96201.34;;;14.10;49.42
24892;BME280;12954;50.688;10.908;2022-07-06T04:36:34;96174.09;;;13.91;49.58
24892;BME280;12954;50.688;10.908;2022-07-06T04:39:03;96206.19;;;14.13;49.62
24892;BME280;12954;50.688;10.908;2022-07-06T04:41:31;96202.91;;;14.16;49.61
24892;BME280;12954;50.688;10.908;2022-07-06T04:44:00;96170.56;;;13.91;49.63
24892;BME280;12954;50.688;10.908;2022-07-06T04:46:29;96201.28;;;14.15;49.70
24892;BME280;12954;50.688;10.908;2022-07-06T04:48:59;96212.94;;;14.16;49.69
24892;BME280;12954;50.688;10.908;2022-07-06T04:51:28;96212.63;;;14.17;49.81
24892;BME280;12954;50.688;10.908;2022-07-06T04:53:56;96215.91;;;14.19;49.84
24892;BME280;12954;50.688;10.908;2022-07-06T04:56:25;96220.22;;;14.20;49.87
24892;BME280;12954;50.688;10.908;2022-07-06T04:58:54;96212.25;;;14.05;50.06
24892;BME280;12954;50.688;10.908;2022-07-06T05:01:22;96208.31;;;14.16;50.04
24892;BME280;12954;50.688;10.908;2022-07-06T05:03:51;96212.13;;;14.15;50.27
24892;BME280;12954;50.688;10.908;2022-07-06T05:06:21;96209.72;;;14.14;50.22
24892;BME280;12954;50.688;10.908;2022-07-06T05:08:50;96216.50;;;14.11;50.39
24892;BME280;12954;50.688;10.908;2022-07-06T05:11:19;96218.13;;;14.12;50.35
24892;BME280;12954;50.688;10.908;2022-07-06T05:13:48;96178.84;;;13.81;50.42
24892;BME280;12954;50.688;10.908;2022-07-06T05:16:17;96199.63;;;13.90;50.47
24892;BME280;12954;50.688;10.908;2022-07-06T05:18:45;96215.97;;;14.09;50.63
24892;BME280;12954;50.688;10.908;2022-07-06T05:21:14;96213.84;;;14.06;50.62
24892;BME280;12954;50.688;10.908;2022-07-06T05:23:44;96219.81;;;14.08;50.76
24892;BME280;12954;50.688;10.908;2022-07-06T05:26:13;96220.31;;;14.10;50.85
24892;BME280;12954;50.688;10.908;2022-07-06T05:28:43;96227.31;;;14.16;50.84
24892;BME280;12954;50.688;10.908;2022-07-06T05:31:12;96234.31;;;14.22;50.72
24892;BME280;12954;50.688;10.908;2022-07-06T05:33:40;96231.25;;;14.29;50.90
24892;BME280;12954;50.688;10.908;2022-07-06T05:36:09;96233.38;;;14.32;50.97
24892;BME280;12954;50.688;10.908;2022-07-06T05:38:38;96239.59;;;14.37;50.95
24892;BME280;12954;50.688;10.908;2022-07-06T05:41:08;96238.97;;;14.45;50.85
24892;BME280;12954;50.688;10.908;2022-07-06T05:43:37;96237.56;;;14.48;50.93
24892;BME280;12954;50.688;10.908;2022-07-06T05:46:05;96230.78;;;14.51;50.84
24892;BME280;12954;50.688;10.908;2022-07-06T05:48:34;96183.25;;;14.24;50.88
24892;BME280;12954;50.688;10.908;2022-07-06T05:51:35;96232.84;;;14.59;50.79
24892;BME280;12954;50.688;10.908;2022-07-06T05:54:03;96236.09;;;14.61;50.80
24892;BME280;12954;50.688;10.908;2022-07-06T05:56:33;96240.72;;;14.60;50.73
24892;BME280;12954;50.688;10.908;2022-07-06T05:59:03;96248.31;;;14.58;50.87
24892;BME280;12954;50.688;10.908;2022-07-06T06:01:31;96247.75;;;14.61;50.82
24892;BME280;12954;50.688;10.908;2022-07-06T06:04:00;96237.13;;;14.65;50.83
24892;BME280;12954;50.688;10.908;2022-07-06T06:06:29;96215.56;;;14.50;50.90
24892;BME280;12954;50.688;10.908;2022-07-06T06:08:59;96234.38;;;14.70;50.81
24892;BME280;12954;50.688;10.908;2022-07-06T06:11:38;96158.91;;;14.19;50.87
24892;BME280;12954;50.688;10.908;2022-07-06T06:14:08;96206.00;;;14.57;50.80
24892;BME280;12954;50.688;10.908;2022-07-06T06:16:36;96228.88;;;14.75;50.84
24892;BME280;12954;50.688;10.908;2022-07-06T06:19:05;96239.97;;;14.78;50.85
24892;BME280;12954;50.688;10.908;2022-07-06T06:21:34;96242.88;;;14.82;50.88
24892;BME280;12954;50.688;10.908;2022-07-06T06:24:03;96173.06;;;14.40;50.73
24892;BME280;12954;50.688;10.908;2022-07-06T06:26:32;96249.03;;;14.92;50.78
24892;BME280;12954;50.688;10.908;2022-07-06T06:29:02;96251.66;;;14.97;50.91
24892;BME280;12954;50.688;10.908;2022-07-06T06:31:30;96257.03;;;15.02;50.74
24892;BME280;12954;50.688;10.908;2022-07-06T06:34:07;96229.03;;;14.83;50.44
24892;BME280;12954;50.688;10.908;2022-07-06T06:36:35;96228.22;;;14.83;50.38
24892;BME280;12954;50.688;10.908;2022-07-06T06:39:04;96245.53;;;15.11;50.36
24892;BME280;12954;50.688;10.908;2022-07-06T06:41:33;96254.41;;;15.16;50.40
24892;BME280;12954;50.688;10.908;2022-07-06T06:44:03;96270.72;;;15.16;50.44
24892;BME280;12954;50.688;10.908;2022-07-06T06:46:32;96257.19;;;15.11;50.48
24892;BME280;12954;50.688;10.908;2022-07-06T06:49:00;96248.28;;;15.06;50.35
24892;BME280;12954;50.688;10.908;2022-07-06T06:51:29;96259.03;;;15.16;50.38
24892;BME280;12954;50.688;10.908;2022-07-06T06:53:57;96258.69;;;15.22;50.25
24892;BME280;12954;50.688;10.908;2022-07-06T06:56:26;96258.09;;;15.25;50.25
24892;BME280;12954;50.688;10.908;2022-07-06T06:58:55;96263.75;;;15.29;50.36
24892;BME280;12954;50.688;10.908;2022-07-06T07:01:45;96242.44;;;15.17;50.02
24892;BME280;12954;50.688;10.908;2022-07-06T07:04:21;96264.09;;;15.46;50.15
24892;BME280;12954;50.688;10.908;2022-07-06T07:06:50;96219.00;;;15.21;50.10
24892;BME280;12954;50.688;10.908;2022-07-06T07:09:19;96262.75;;;15.62;50.14
24892;BME280;12954;50.688;10.908;2022-07-06T07:11:47;96209.50;;;15.42;49.86
24892;BME280;12954;50.688;10.908;2022-07-06T07:14:16;96254.06;;;15.79;49.79
24892;BME280;12954;50.688;10.908;2022-07-06T07:16:46;96237.22;;;15.77;49.40
24892;BME280;12954;50.688;10.908;2022-07-06T07:19:14;96260.38;;;15.93;49.35
24892;BME280;12954;50.688;10.908;2022-07-06T07:21:43;96255.06;;;16.01;49.25
24892;BME280;12954;50.688;10.908;2022-07-06T07:24:12;96255.06;;;16.01;48.95
24892;BME280;12954;50.688;10.908;2022-07-06T07:26:40;96255.88;;;16.02;48.98
24892;BME280;12954;50.688;10.908;2022-07-06T07:29:09;96243.97;;;15.98;48.76
24892;BME280;12954;50.688;10.908;2022-07-06T07:31:38;96204.72;;;15.85;48.58
24892;BME280;12954;50.688;10.908;2022-07-06T07:34:08;96257.81;;;16.34;48.44
24892;BME280;12954;50.688;10.908;2022-07-06T07:36:36;96252.75;;;16.41;48.32
24892;BME280;12954;50.688;10.908;2022-07-06T07:39:05;96253.78;;;16.45;47.96
24892;BME280;12954;50.688;10.908;2022-07-06T07:41:34;96183.28;;;15.97;48.17
24892;BME280;12954;50.688;10.908;2022-07-06T07:44:02;96254.16;;;16.38;48.51
24892;BME280;12954;50.688;10.908;2022-07-06T07:46:31;96257.69;;;16.39;48.31
24892;BME280;12954;50.688;10.908;2022-07-06T07:49:00;96231.69;;;16.14;48.12
24892;BME280;12954;50.688;10.908;2022-07-06T07:51:29;96254.97;;;16.25;48.19
24892;BME280;12954;50.688;10.908;2022-07-06T07:53:58;96253.41;;;16.19;48.59
24892;BME280;12954;50.688;10.908;2022-07-06T07:56:27;96253.91;;;16.21;48.52
24892;BME280;12954;50.688;10.908;2022-07-06T07:58:55;96258.19;;;16.27;48.54
24892;BME280;12954;50.688;10.908;2022-07-06T08:01:24;96224.66;;;16.13;48.03
24892;BME280;12954;50.688;10.908;2022-07-06T08:03:52;96043.91;;;15.09;47.73
24892;BME280;12954;50.688;10.908;2022-07-06T08:06:21;96254.66;;;16.40;47.95
24892;BME280;12954;50.688;10.908;2022-07-06T08:08:51;96233.78;;;16.36;47.78
24892;BME280;12954;50.688;10.908;2022-07-06T08:11:20;96261.75;;;16.55;47.73
24892;BME280;12954;50.688;10.908;2022-07-06T08:13:48;96186.94;;;16.20;47.65
24892;BME280;12954;50.688;10.908;2022-07-06T08:16:17;96253.72;;;16.63;47.42
24892;BME280;12954;50.688;10.908;2022-07-06T08:18:46;96260.25;;;16.62;47.54
24892;BME280;12954;50.688;10.908;2022-07-06T08:21:14;96259.88;;;16.69;46.83
24892;BME280;12954;50.688;10.908;2022-07-06T08:23:54;96236.03;;;16.47;46.82
24892;BME280;12954;50.688;10.908;2022-07-06T08:26:23;96260.84;;;16.73;46.25
24892;BME280;12954;50.688;10.908;2022-07-06T08:28:52;96253.38;;;16.65;45.50
24892;BME280;12954;50.688;10.908;2022-07-06T08:31:20;96248.94;;;16.83;45.35
24892;BME280;12954;50.688;10.908;2022-07-06T08:34:09;96255.31;;;16.92;45.10
24892;BME280;12954;50.688;10.908;2022-07-06T08:36:38;96190.41;;;16.53;45.10
24892;BME280;12954;50.688;10.908;2022-07-06T08:39:08;96257.53;;;16.90;45.61
24892;BME280;12954;50.688;10.908;2022-07-06T08:41:38;96229.19;;;16.63;45.54
24892;BME280;12954;50.688;10.908;2022-07-06T08:44:09;96263.50;;;16.92;45.57
24892;BME280;12954;50.688;10.908;2022-07-06T08:46:38;96253.00;;;16.99;45.69
24892;BME280;12954;50.688;10.908;2022-07-06T08:49:08;96258.84;;;17.06;45.35
24892;BME280;12954;50.688;10.908;2022-07-06T08:51:41;96259.56;;;17.11;44.72
24892;BME280;12954;50.688;10.908;2022-07-06T08:54:11;96263.59;;;17.14;44.93
24892;BME280;12954;50.688;10.908;2022-07-06T08:56:40;96268.72;;;17.29;44.24
24892;BME280;12954;50.688;10.908;2022-07-06T08:59:15;96259.25;;;17.27;44.03
24892;BME280;12954;50.688;10.908;2022-07-06T09:01:44;96218.66;;;16.98;44.18
24892;BME280;12954;50.688;10.908;2022-07-06T09:04:15;96269.25;;;17.31;43.82
24892;BME280;12954;50.688;10.908;2022-07-06T09:06:47;96260.25;;;17.31;43.91
24892;BME280;12954;50.688;10.908;2022-07-06T09:09:19;96190.63;;;16.84;43.77
24892;BME280;12954;50.688;10.908;2022-07-06T09:11:49;96265.88;;;17.34;43.91
24892;BME280;12954;50.688;10.908;2022-07-06T09:14:18;96273.78;;;17.36;43.55
24892;BME280;12954;50.688;10.908;2022-07-06T09:16:51;96262.78;;;17.27;43.36
24892;BME280;12954;50.688;10.908;2022-07-06T09:19:20;96265.91;;;17.20;43.56
24892;BME280;12954;50.688;10.908;2022-07-06T09:21:49;96267.34;;;17.18;43.34
24892;BME280;12954;50.688;10.908;2022-07-06T09:24:19;96269.34;;;17.26;43.28
24892;BME280;12954;50.688;10.908;2022-07-06T09:26:48;96259.94;;;17.32;43.36
24892;BME280;12954;50.688;10.908;2022-07-06T09:29:16;96269.00;;;17.41;43.28
24892;BME280;12954;50.688;10.908;2022-07-06T09:31:56;96264.25;;;17.47;42.80
24892;BME280;12954;50.688;10.908;2022-07-06T09:34:40;96270.09;;;17.54;42.67
24892;BME280;12954;50.688;10.908;2022-07-06T09:37:09;96271.75;;;17.41;42.88
24892;BME280;12954;50.688;10.908;2022-07-06T09:39:39;96276.38;;;17.41;42.85
24892;BME280;12954;50.688;10.908;2022-07-06T09:42:08;96268.00;;;17.37;42.57
24892;BME280;12954;50.688;10.908;2022-07-06T09:44:38;96244.91;;;17.21;42.38
24892;BME280;12954;50.688;10.908;2022-07-06T09:47:07;96259.03;;;17.37;42.47
24892;BME280;12954;50.688;10.908;2022-07-06T09:49:37;96223.38;;;17.06;42.24
24892;BME280;12954;50.688;10.908;2022-07-06T09:52:07;96260.00;;;17.41;42.17
24892;BME280;12954;50.688;10.908;2022-07-06T09:54:38;96267.09;;;17.42;41.97
24892;BME280;12954;50.688;10.908;2022-07-06T09:57:08;96259.41;;;17.44;41.84
24892;BME280;12954;50.688;10.908;2022-07-06T09:59:36;96266.97;;;17.60;41.66
24892;BME280;12954;50.688;10.908;2022-07-06T10:02:06;96275.28;;;17.77;41.13
24892;BME280;12954;50.688;10.908;2022-07-06T10:04:35;96254.84;;;17.89;41.14
24892;BME280;12954;50.688;10.908;2022-07-06T10:07:04;96240.78;;;17.82;40.74
24892;BME280;12954;50.688;10.908;2022-07-06T10:09:35;96263.91;;;17.98;40.96
24892;BME280;12954;50.688;10.908;2022-07-06T10:12:06;96256.22;;;18.00;40.49
24892;BME280;12954;50.688;10.908;2022-07-06T10:14:37;96256.81;;;17.97;39.85
24892;BME280;12954;50.688;10.908;2022-07-06T10:17:16;96257.31;;;17.99;40.05
24892;BME280;12954;50.688;10.908;2022-07-06T10:19:46;96260.22;;;18.02;39.36
24892;BME280;12954;50.688;10.908;2022-07-06T10:22:17;96260.03;;;17.99;39.30
24892;BME280;12954;50.688;10.908;2022-07-06T10:24:46;96239.28;;;17.75;38.98
24892;BME280;12954;50.688;10.908;2022-07-06T10:27:17;96259.69;;;17.92;38.71
24892;BME280;12954;50.688;10.908;2022-07-06T10:29:46;96247.06;;;17.82;38.83
24892;BME280;12954;50.688;10.908;2022-07-06T10:32:17;96244.75;;;17.75;38.87
24892;BME280;12954;50.688;10.908;2022-07-06T10:34:47;96246.22;;;17.82;38.70
24892;BME280;12954;50.688;10.908;2022-07-06T10:37:23;96235.59;;;17.94;39.14
24892;BME280;12954;50.688;10.908;2022-07-06T10:39:52;96247.25;;;18.08;38.81
24892;BME280;12954;50.688;10.908;2022-07-06T10:42:43;96221.44;;;18.14;38.19
24892;BME280;12954;50.688;10.908;2022-07-06T10:45:13;96231.34;;;18.32;37.88
24892;BME280;12954;50.688;10.908;2022-07-06T10:47:42;96241.78;;;18.30;37.80
24892;BME280;12954;50.688;10.908;2022-07-06T10:50:11;96233.78;;;18.33;37.52
24892;BME280;12954;50.688;10.908;2022-07-06T10:52:58;96234.31;;;18.44;37.51
24892;BME280;12954;50.688;10.908;2022-07-06T10:55:31;96229.03;;;18.48;37.34
24892;BME280;12954;50.688;10.908;2022-07-06T10:58:02;96223.69;;;18.43;37.28
24892;BME280;12954;50.688;10.908;2022-07-06T11:00:48;96145.38;;;17.99;37.20
24892;BME280;12954;50.688;10.908;2022-07-06T11:03:33;96240.09;;;18.73;37.41
24892;BME280;12954;50.688;10.908;2022-07-06T11:06:06;96237.09;;;18.83;36.97
24892;BME280;12954;50.688;10.908;2022-07-06T11:08:53;96224.72;;;18.95;36.51
24892;BME280;12954;50.688;10.908;2022-07-06T11:11:24;96221.38;;;18.98;36.32
24892;BME280;12954;50.688;10.908;2022-07-06T11:13:59;96220.56;;;18.97;35.85
24892;BME280;12954;50.688;10.908;2022-07-06T11:16:30;96199.25;;;18.77;36.10
24892;BME280;12954;50.688;10.908;2022-07-06T11:19:08;96133.69;;;18.46;35.61
24892;BME280;12954;50.688;10.908;2022-07-06T11:21:44;96229.75;;;19.10;35.70
24892;BME280;12954;50.688;10.908;2022-07-06T11:24:14;96229.13;;;19.13;35.69
24892;BME280;12954;50.688;10.908;2022-07-06T11:26:44;96229.94;;;19.22;35.54
24892;BME280;12954;50.688;10.908;2022-07-06T11:29:16;96241.69;;;19.31;35.51
24892;BME280;12954;50.688;10.908;2022-07-06T11:31:47;96233.34;;;19.36;35.64
24892;BME280;12954;50.688;10.908;2022-07-06T11:34:19;96233.69;;;19.43;35.66
24892;BME280;12954;50.688;10.908;2022-07-06T11:36:48;96236.78;;;19.50;35.41
24892;BME280;12954;50.688;10.908;2022-07-06T11:39:17;96237.06;;;19.49;35.21
24892;BME280;12954;50.688;10.908;2022-07-06T11:41:46;96228.34;;;19.38;35.15
24892;BME280;12954;50.688;10.908;2022-07-06T11:44:19;96224.63;;;19.25;34.88
24892;BME280;12954;50.688;10.908;2022-07-06T11:46:48;96178.53;;;18.84;35.06
24892;BME280;12954;50.688;10.908;2022-07-06T11:49:17;96169.66;;;18.70;34.86
24892;BME280;12954;50.688;10.908;2022-07-06T11:51:46;96212.97;;;18.85;35.10
24892;BME280;12954;50.688;10.908;2022-07-06T11:54:16;96221.00;;;18.91;35.32
24892;BME280;12954;50.688;10.908;2022-07-06T11:56:47;96221.19;;;18.63;35.55
24892;BME280;12954;50.688;10.908;2022-07-06T11:59:16;96216.13;;;18.70;35.69
24892;BME280;12954;50.688;10.908;2022-07-06T12:01:49;96229.94;;;18.65;35.52
24892;BME280;12954;50.688;10.908;2022-07-06T12:04:25;96223.31;;;18.66;35.20
24892;BME280;12954;50.688;10.908;2022-07-06T12:06:55;96222.31;;;18.54;35.04
24892;BME280;12954;50.688;10.908;2022-07-06T12:09:23;96208.63;;;18.54;35.42
24892;BME280;12954;50.688;10.908;2022-07-06T12:11:52;96213.88;;;18.72;35.14
24892;BME280;12954;50.688;10.908;2022-07-06T12:14:21;96211.06;;;18.95;34.86
24892;BME280;12954;50.688;10.908;2022-07-06T12:16:51;96211.22;;;18.98;34.79
24892;BME280;12954;50.688;10.908;2022-07-06T12:19:22;96201.72;;;18.96;34.80
24892;BME280;12954;50.688;10.908;2022-07-06T12:21:52;96209.91;;;18.96;34.50
24892;BME280;12954;50.688;10.908;2022-07-06T12:24:21;96181.88;;;18.73;34.29
24892;BME280;12954;50.688;10.908;2022-07-06T12:26:52;96199.91;;;18.74;34.79
24892;BME280;12954;50.688;10.908;2022-07-06T12:29:22;96206.63;;;18.68;34.97
24892;BME280;12954;50.688;10.908;2022-07-06T12:31:53;96203.09;;;18.67;35.16
24892;BME280;12954;50.688;10.908;2022-07-06T12:34:23;96201.81;;;18.73;35.39
24892;BME280;12954;50.688;10.908;2022-07-06T12:36:54;96210.03;;;18.73;35.06
24892;BME280;12954;50.688;10.908;2022-07-06T12:39:31;96202.66;;;18.82;34.88
24892;BME280;12954;50.688;10.908;2022-07-06T12:42:02;96202.38;;;18.93;34.97
24892;BME280;12954;50.688;10.908;2022-07-06T12:44:32;96179.34;;;18.94;34.51
24892;BME280;12954;50.688;10.908;2022-07-06T12:47:04;96187.28;;;19.21;34.32
24892;BME280;12954;50.688;10.908;2022-07-06T12:49:34;96189.56;;;19.36;33.90
24892;BME280;12954;50.688;10.908;2022-07-06T12:52:09;96196.03;;;19.49;34.41
24892;BME280;12954;50.688;10.908;2022-07-06T12:54:41;96187.84;;;19.66;34.27
24892;BME280;12954;50.688;10.908;2022-07-06T12:57:12;96198.59;;;19.79;33.94
24892;BME280;12954;50.688;10.908;2022-07-06T12:59:43;96126.03;;;19.39;33.95
24892;BME280;12954;50.688;10.908;2022-07-06T13:02:22;96176.06;;;19.74;33.52
24892;BME280;12954;50.688;10.908;2022-07-06T13:05:12;96115.19;;;19.17;33.69